Terrace Airport
CYXT : now visible

Airfield :











YOU CAN JOIN US ON...

 
LOGIN :

Register | Disclaimer

   EN    FR    IT 

 









Legend :    VFR   Marginal VFR   IFR   Intensive IFR   Very Intensive IFR
Visi :
Ceiling :
>= 8 km
>= 3000ft
5 to 8 km
1000 to 3000 ft
1500m to 5 km
500 to 1000 ft
800 to 1500m
200 to 500 ft
< 800m
< 200 ft
Symbols :   Thunderstorms  Fog  Heavy snow  Heavy precipitations  Wind > 20 kt






- Airport Elevation : 713 ft
- IATA code : YXT


CYXT - Terrace

CURRENT METAR :
  • 190700Z 18009KT 20SM FEW110 FEW170 FEW200 13/09 A3004 RMK AC1AC1CI1 AC TR SLP179

EXPIRED METARs :
  • 190600Z 19006KT 20SM -SHRA FEW090CB FEW100 FEW200 14/09 A3003 RMK CB2AC1CI1 AC TR CI TR SLP175
  • 190506Z 17014G21KT 20SM -SHRA FEW080CB SCT100 BKN200 15/08 A3001 RMK CB2AC1CI2 CB N MOV S SLP169
  • 190400Z 17020KT 20SM SCT110 BKN200 17/07 A2999 RMK AC3CI2 SLP160 DENSITY ALT 1000FT
  • 190300Z 16018G24KT 20SM FEW065 FEW100 FEW200 18/08 A2998 RMK CU1AC1CI2 CU TR AC TR SLP157 DENSITY ALT 1200FT

TAF TAF CYXT
Valid from the 19 at 07:00 until the 19 at 19:00 UTC


190640Z 1907/1919 16014G24KT P6SM FEW080 BKN200
TEMPO 1907/1910 P6SM -SHRA VCTS BKN080CB OVC200
FM191000 18008KT P6SM SCT030
BECMG 1915/1917 22005KT RMK NXT FCST BY 191300Z
CZVR FIR / North America



MET'MAP, your aeronautical weather chart ! - Copyright ORBIFLY December 2007 - Disclaimer

ORBIFLY MET'MAP TEAM :

Programming & Development : Alexandra Zaïnal
Original concept : Baudouin d'Aumeries
Technical & hardware support : Manuel Goepfert
Assistance : Marc-Olivier Méhu




SOURCES & CREDITS :

   NOAA       Earth
Advisory